American Fork, Utah
Current Conditions -  °F | °C
As of 8:58 AM on Wednesday 26 Nov 2014 (Local Time) from KPVU Reporting Station
Scattered Clouds Scattered Clouds  
Wind Chill: 34°   Ceiling: Unl
Heat Index: 34°   Visibility: 15mi
Dew Point: 28°   Wind: 0mph
Humidity: 81%   Direction: NA
Pressure: 30.43"   Gusts: NA
Location:  40.38°N, 111.79°W
Report Text: KPVU 261558Z 00000KT 15SM FEW070 SCT160 01/M02 A3043
Loading
Personal Weather Stations






























Interactive Weather Map New forecast layout! Learn more

10-Day Weather Forecast

Advertisements
Track Severe Weather on mobile